createdAt,value
2018-06-02T00:02:06.742Z,54.27
2018-06-02T00:04:38.651Z,53.27
2018-06-02T00:07:11.295Z,46.33
2018-06-02T00:09:43.209Z,53.87
2018-06-02T00:12:15.084Z,51.30
2018-06-02T00:14:47.008Z,52.70
2018-06-02T00:17:19.743Z,54.60
2018-06-02T00:19:51.654Z,52.43
2018-06-02T00:22:24.304Z,54.40
2018-06-02T00:24:56.220Z,51.23
2018-06-02T00:27:28.119Z,51.20
2018-06-02T00:30:00.022Z,54.60
2018-06-02T00:32:31.928Z,54.67
2018-06-02T00:35:03.838Z,51.93
2018-06-02T00:37:36.486Z,49.23
2018-06-02T00:40:08.399Z,51.73
2018-06-02T00:42:40.279Z,52.27
2018-06-02T00:45:12.185Z,52.73
2018-06-02T00:47:44.071Z,49.67
2018-06-02T00:50:15.999Z,57.13
2018-06-02T00:52:47.874Z,52.80
2018-06-02T00:55:20.553Z,56.27
2018-06-02T00:57:53.211Z,55.30
2018-06-02T01:00:25.111Z,51.00
2018-06-02T01:02:57.001Z,54.77
2018-06-02T01:05:28.947Z,54.47
2018-06-02T01:08:01.603Z,55.50
2018-06-02T01:10:33.506Z,52.50
2018-06-02T01:13:05.390Z,55.13
2018-06-02T01:15:37.302Z,56.03
2018-06-02T01:18:09.190Z,53.20
2018-06-02T01:20:41.875Z,55.97
2018-06-02T01:23:13.769Z,54.70
2018-06-02T01:25:45.682Z,57.97
2018-06-02T01:28:17.570Z,56.73
2018-06-02T01:30:49.458Z,56.57
2018-06-02T01:33:22.117Z,57.57
2018-06-02T01:35:54.019Z,54.00
2018-06-02T01:38:25.897Z,54.83
2018-06-02T01:40:57.806Z,52.93
2018-06-02T01:43:29.692Z,55.13
2018-06-02T01:46:01.611Z,51.17
2018-06-02T01:48:33.726Z,53.70
2018-06-02T01:51:05.663Z,56.10
2018-06-02T01:53:37.562Z,55.80
2018-06-02T01:56:09.726Z,55.60
2018-06-02T01:58:41.602Z,55.90
2018-06-02T02:01:13.741Z,56.90
2018-06-02T02:03:45.855Z,54.97
2018-06-02T02:06:17.795Z,54.30
2018-06-02T02:08:49.689Z,55.47
2018-06-02T02:11:21.599Z,48.47
2018-06-02T02:13:53.486Z,52.73
2018-06-02T02:16:25.387Z,53.67
2018-06-02T02:18:57.277Z,52.33
2018-06-02T02:21:29.202Z,54.07
2018-06-02T02:24:01.867Z,54.17
2018-06-02T02:26:33.998Z,53.43
2018-06-02T02:29:05.882Z,54.53
2018-06-02T02:31:37.808Z,51.63
2018-06-02T02:34:09.691Z,51.97
2018-06-02T02:36:41.605Z,51.83
2018-06-02T02:39:14.261Z,50.97
2018-06-02T02:41:46.170Z,53.53
2018-06-02T02:44:18.060Z,50.43
2018-06-02T02:46:49.973Z,53.20
2018-06-02T02:49:21.872Z,54.00
2018-06-02T02:51:53.774Z,56.50
2018-06-02T02:54:27.419Z,54.67
2018-06-02T02:56:59.570Z,51.83
2018-06-02T02:59:31.762Z,55.77
2018-06-02T03:02:03.671Z,54.47
2018-06-02T03:04:36.339Z,54.43
2018-06-02T03:07:08.247Z,56.50
2018-06-02T03:09:40.126Z,56.57
2018-06-02T03:12:12.060Z,55.53
2018-06-02T03:14:43.947Z,54.23
2018-06-02T03:17:15.855Z,56.23
2018-06-02T03:19:48.506Z,57.93
2018-06-02T03:22:20.423Z,54.17
2018-06-02T03:24:52.307Z,54.63
2018-06-02T03:27:24.220Z,56.03
2018-06-02T03:29:56.871Z,57.47
2018-06-02T03:32:28.794Z,55.47
2018-06-02T03:35:00.691Z,59.53
2018-06-02T03:37:32.599Z,55.27
2018-06-02T03:40:04.483Z,55.30
2018-06-02T03:42:36.384Z,53.47
2018-06-02T03:45:08.268Z,54.00
2018-06-02T03:47:40.950Z,57.33
2018-06-02T03:50:12.842Z,55.40
2018-06-02T03:52:44.743Z,56.80
2018-06-02T03:55:16.648Z,58.97
2018-06-02T03:57:48.556Z,58.00
2018-06-02T04:00:20.451Z,55.30
2018-06-02T04:02:52.362Z,57.77
2018-06-02T04:05:24.242Z,54.67
2018-06-02T04:07:56.447Z,58.13
2018-06-02T04:10:28.340Z,134.13
2018-06-02T04:13:00.259Z,93.63
2018-06-02T04:15:32.186Z,66.57
2018-06-02T04:18:04.113Z,58.17
2018-06-02T04:20:36.012Z,56.80
2018-06-02T04:23:07.923Z,60.10
2018-06-02T04:25:39.826Z,62.60
2018-06-02T04:28:11.747Z,63.23
2018-06-02T04:30:43.638Z,58.57
2018-06-02T04:33:15.540Z,60.47
2018-06-02T04:35:47.423Z,59.03
2018-06-02T04:38:19.555Z,59.43
2018-06-02T04:40:52.211Z,57.83
2018-06-02T04:43:24.116Z,57.70
2018-06-02T04:45:56.290Z,60.37
2018-06-02T04:48:28.191Z,56.10
2018-06-02T04:51:00.087Z,57.07
2018-06-02T04:53:32.997Z,58.93
2018-06-02T04:56:04.878Z,58.47
2018-06-02T04:58:36.790Z,55.63
2018-06-02T05:01:09.447Z,61.77
2018-06-02T05:03:41.655Z,54.30
2018-06-02T05:06:13.551Z,56.00
2018-06-02T05:08:45.448Z,54.93
2018-06-02T05:11:17.340Z,57.27
2018-06-02T05:13:49.250Z,51.50
2018-06-02T05:16:21.133Z,51.93
2018-06-02T05:18:53.067Z,51.53
2018-06-02T05:21:25.726Z,49.43
2018-06-02T05:23:57.621Z,49.20
2018-06-02T05:26:29.503Z,49.63
2018-06-02T05:29:02.189Z,44.57
2018-06-02T05:31:34.874Z,42.77
2018-06-02T05:34:06.786Z,42.70
2018-06-02T05:36:38.666Z,41.60
2018-06-02T05:39:10.585Z,38.80
2018-06-02T05:41:42.454Z,38.67
2018-06-02T05:44:14.372Z,33.80
2018-06-02T05:46:46.253Z,34.53
2018-06-02T05:49:18.406Z,34.27
2018-06-02T05:51:50.288Z,31.83
2018-06-02T05:54:22.192Z,28.00
2018-06-02T05:56:54.086Z,28.20
2018-06-02T05:59:25.999Z,28.27
2018-06-02T06:01:57.880Z,27.53
2018-06-02T06:04:30.571Z,24.43
2018-06-02T06:07:03.224Z,26.50
2018-06-02T06:09:35.127Z,23.87
2018-06-02T06:12:07.019Z,23.23
2018-06-02T06:14:38.917Z,24.63
2018-06-02T06:17:10.802Z,21.23
2018-06-02T06:19:42.702Z,23.17
2018-06-02T06:22:14.590Z,21.23
2018-06-02T06:24:46.537Z,20.93
2018-06-02T06:27:18.411Z,21.33
2018-06-02T06:29:50.315Z,21.03
2018-06-02T06:32:22.231Z,21.10
2018-06-02T06:34:54.364Z,20.40
2018-06-02T06:37:26.257Z,20.97
2018-06-02T06:39:58.154Z,21.20
2018-06-02T06:42:30.042Z,20.53
2018-06-02T06:45:01.946Z,19.07
2018-06-02T06:47:33.831Z,20.80
2018-06-02T06:50:05.746Z,19.57
2018-06-02T06:52:37.626Z,20.37
2018-06-02T06:55:09.527Z,20.07
2018-06-02T06:57:41.703Z,20.03
2018-06-02T07:00:13.604Z,19.07
2018-06-02T07:02:45.483Z,18.77
2018-06-02T07:05:18.146Z,18.87
2018-06-02T07:07:50.990Z,17.43
2018-06-02T07:10:22.880Z,17.57
2018-06-02T07:12:54.765Z,23.57
2018-06-02T07:15:27.442Z,16.70
2018-06-02T07:18:00.094Z,17.00
2018-06-02T07:20:31.995Z,16.90
2018-06-02T07:23:03.882Z,17.03
2018-06-02T07:25:36.030Z,15.70
2018-06-02T07:28:07.930Z,13.53
2018-06-02T07:30:39.881Z,14.07
2018-06-02T07:33:11.742Z,14.23
2018-06-02T07:35:43.663Z,18.43
2018-06-02T07:38:16.303Z,20.90
2018-06-02T07:40:48.222Z,15.37
2018-06-02T07:43:20.100Z,12.87
2018-06-02T07:45:52.015Z,14.20
2018-06-02T07:48:24.678Z,12.63
2018-06-02T07:50:56.585Z,14.07
2018-06-02T07:53:28.471Z,12.73
2018-06-02T07:56:00.381Z,11.90
2018-06-02T07:58:33.088Z,10.93
2018-06-02T08:01:05.015Z,13.15
2018-06-02T08:03:37.687Z,11.10
2018-06-02T08:06:10.371Z,11.63
2018-06-02T08:08:43.090Z,10.25
2018-06-02T08:11:14.941Z,10.65
2018-06-02T08:13:46.837Z,10.70
2018-06-02T08:16:18.751Z,10.70
2018-06-02T08:18:50.645Z,11.68
2018-06-02T08:21:23.312Z,11.02
2018-06-02T08:23:55.458Z,11.45
2018-06-02T08:26:27.370Z,11.00
2018-06-02T08:28:59.276Z,10.20
2018-06-02T08:31:31.185Z,10.73
2018-06-02T08:34:03.075Z,10.73
2018-06-02T08:36:35.984Z,11.00
2018-06-02T08:39:07.875Z,9.65
2018-06-02T08:41:39.781Z,10.75
2018-06-02T08:44:12.423Z,9.52
2018-06-02T08:46:44.326Z,8.32
2018-06-02T08:49:16.979Z,8.52
2018-06-02T08:51:49.297Z,7.97
2018-06-02T08:54:21.203Z,8.55
2018-06-02T08:56:53.330Z,7.93
2018-06-02T08:59:25.215Z,8.15
2018-06-02T09:01:57.117Z,7.80
2018-06-02T09:04:29.763Z,7.12
2018-06-02T09:07:01.670Z,5.97
2018-06-02T09:09:33.554Z,6.07
2018-06-02T09:12:05.461Z,5.70
2018-06-02T09:14:37.343Z,5.62
2018-06-02T09:17:10.239Z,8.32
2018-06-02T09:19:42.127Z,5.93
2018-06-02T09:22:14.047Z,7.90
2018-06-02T09:24:46.717Z,6.35
2018-06-02T09:27:18.618Z,5.60
2018-06-02T09:29:50.766Z,4.85
2018-06-02T09:32:22.671Z,4.80
2018-06-02T09:34:54.576Z,6.10
2018-06-02T09:37:27.241Z,5.62
2018-06-02T09:40:00.155Z,5.35
2018-06-02T09:42:32.058Z,5.10
2018-06-02T09:45:03.952Z,5.68
2018-06-02T09:47:36.619Z,9.82
2018-06-02T09:50:08.507Z,7.12
2018-06-02T09:52:40.408Z,6.40
2018-06-02T09:55:12.290Z,5.57
2018-06-02T09:57:44.240Z,5.18
2018-06-02T10:00:16.083Z,5.03
2018-06-02T10:02:48.023Z,4.50
2018-06-02T10:05:19.894Z,4.47
2018-06-02T10:07:51.802Z,4.60
2018-06-02T10:10:23.691Z,4.43
2018-06-02T10:12:55.591Z,4.30
2018-06-02T10:15:27.470Z,4.47
2018-06-02T10:17:59.362Z,5.22
2018-06-02T10:20:32.011Z,4.80
2018-06-02T10:23:03.915Z,4.80
2018-06-02T10:25:35.783Z,5.35
2018-06-02T10:28:07.683Z,5.43
2018-06-02T10:30:39.571Z,5.32
2018-06-02T10:33:11.865Z,4.72
2018-06-02T10:35:43.795Z,4.70
2018-06-02T10:38:15.666Z,4.50
2018-06-02T10:40:48.326Z,5.37
2018-06-02T10:43:20.531Z,4.05
2018-06-02T10:45:52.410Z,4.25
2018-06-02T10:48:24.309Z,4.30
2018-06-02T10:50:56.202Z,6.43
2018-06-02T10:53:28.875Z,6.50
2018-06-02T10:56:01.526Z,4.47
2018-06-02T10:58:33.450Z,4.12
2018-06-02T11:01:05.334Z,4.10
2018-06-02T11:03:37.227Z,4.20
2018-06-02T11:06:09.879Z,3.62
2018-06-02T11:08:41.781Z,6.10
2018-06-02T11:11:13.675Z,5.53
2018-06-02T11:13:45.583Z,6.25
2018-06-02T11:16:17.459Z,4.50
2018-06-02T11:18:50.133Z,4.20
2018-06-02T11:21:22.778Z,4.10
2018-06-02T11:23:54.707Z,3.50
2018-06-02T11:26:26.591Z,3.95
2018-06-02T11:28:58.831Z,4.55
2018-06-02T11:31:30.727Z,4.53
2018-06-02T11:34:02.950Z,4.68
2018-06-02T11:36:34.837Z,4.00
2018-06-02T11:39:06.970Z,3.72
2018-06-02T11:41:39.139Z,3.45
2018-06-02T11:44:11.111Z,3.40
2018-06-02T11:46:42.931Z,2.90
2018-06-02T11:49:14.832Z,3.17
2018-06-02T11:51:46.990Z,3.30
2018-06-02T11:54:18.890Z,2.62
2018-06-02T11:56:50.787Z,2.90
2018-06-02T11:59:23.447Z,2.40
2018-06-02T12:01:55.344Z,2.80
2018-06-02T12:04:27.251Z,2.80
2018-06-02T12:06:59.183Z,2.70
2018-06-02T12:09:31.806Z,2.50
2018-06-02T12:12:03.689Z,3.10
2018-06-02T12:14:36.359Z,3.80
2018-06-02T12:17:08.551Z,3.20
2018-06-02T12:19:40.443Z,3.05
2018-06-02T12:22:12.318Z,2.87
2018-06-02T12:24:44.229Z,2.83
2018-06-02T12:27:17.141Z,3.30
2018-06-02T12:29:49.035Z,3.10
2018-06-02T12:32:20.933Z,3.12
2018-06-02T12:34:53.602Z,3.08
2018-06-02T12:37:26.278Z,2.87
2018-06-02T12:39:58.936Z,2.83
2018-06-02T12:42:30.826Z,2.22
2018-06-02T12:45:02.743Z,2.40
2018-06-02T12:47:34.618Z,1.70
2018-06-02T12:50:06.517Z,1.90
2018-06-02T12:52:38.467Z,2.30
2018-06-02T12:55:10.747Z,1.77
2018-06-02T12:57:42.643Z,2.15
2018-06-02T13:00:14.559Z,2.03
2018-06-02T13:02:47.210Z,1.87
2018-06-02T13:05:19.106Z,1.83
2018-06-02T13:07:50.979Z,2.05
2018-06-02T13:10:22.880Z,1.80
2018-06-02T13:12:54.754Z,2.20
2018-06-02T13:15:26.680Z,2.42
2018-06-02T13:17:58.555Z,1.90
2018-06-02T13:20:30.487Z,2.40
2018-06-02T13:23:02.362Z,1.90
2018-06-02T13:25:34.264Z,2.28
2018-06-02T13:28:06.929Z,1.95
2018-06-02T13:30:39.138Z,1.83
2018-06-02T13:33:11.069Z,2.00
2018-06-02T13:35:43.272Z,2.20
2018-06-02T13:38:15.158Z,1.60
2018-06-02T13:40:47.071Z,1.67
2018-06-02T13:43:19.713Z,2.40
2018-06-02T13:45:51.611Z,2.43
2018-06-02T13:48:24.266Z,1.60
2018-06-02T13:50:56.162Z,1.93
2018-06-02T13:53:28.052Z,2.03
2018-06-02T13:56:00.195Z,1.80
2018-06-02T13:58:32.073Z,1.90
2018-06-02T14:01:03.983Z,2.27
2018-06-02T14:03:36.180Z,1.80
2018-06-02T14:06:08.103Z,2.10
2018-06-02T14:08:39.985Z,2.50
2018-06-02T14:11:12.848Z,1.60
2018-06-02T14:13:44.735Z,1.98
2018-06-02T14:16:17.403Z,1.73
2018-06-02T14:18:50.074Z,1.70
2018-06-02T14:21:21.994Z,1.67
2018-06-02T14:23:54.349Z,1.50
2018-06-02T14:26:26.255Z,1.60
2018-06-02T14:28:58.137Z,1.80
2018-06-02T14:31:31.046Z,1.42
2018-06-02T14:34:02.934Z,1.70
2018-06-02T14:36:34.839Z,1.60
2018-06-02T14:39:07.486Z,2.87
2018-06-02T14:41:39.398Z,2.00
2018-06-02T14:44:11.563Z,1.50
2018-06-02T14:46:43.470Z,1.80
2018-06-02T14:49:15.388Z,1.47
2018-06-02T14:51:47.285Z,1.60
2018-06-02T14:54:19.515Z,1.77
2018-06-02T14:56:51.682Z,1.65
2018-06-02T14:59:23.581Z,1.75
2018-06-02T15:01:55.517Z,1.35
2018-06-02T15:04:27.410Z,1.57
2018-06-02T15:06:59.631Z,1.70
2018-06-02T15:09:31.533Z,1.20
2018-06-02T15:12:03.430Z,1.60
2018-06-02T15:14:36.083Z,2.00
2018-06-02T15:17:07.978Z,1.60
2018-06-02T15:19:40.622Z,1.50
2018-06-02T15:22:12.533Z,1.85
2018-06-02T15:24:44.694Z,1.63
2018-06-02T15:27:16.620Z,1.70
2018-06-02T15:29:48.483Z,2.00
2018-06-02T15:32:20.426Z,1.80
2018-06-02T15:34:52.324Z,1.80
2018-06-02T15:37:24.991Z,1.83
2018-06-02T15:39:56.906Z,2.00
2018-06-02T15:42:29.047Z,1.90
2018-06-02T15:45:00.938Z,2.20
2018-06-02T15:47:33.614Z,3.57
2018-06-02T15:50:05.486Z,3.30
2018-06-02T15:52:37.436Z,3.37
2018-06-02T15:55:09.571Z,2.70
2018-06-02T15:57:41.476Z,2.30
2018-06-02T16:00:13.356Z,1.90
2018-06-02T16:02:45.280Z,2.57
2018-06-02T16:05:17.154Z,2.30
2018-06-02T16:07:49.061Z,2.97
2018-06-02T16:10:21.706Z,2.10
2018-06-02T16:12:53.667Z,2.00
2018-06-02T16:15:25.507Z,2.30
2018-06-02T16:17:57.414Z,3.00
2018-06-02T16:20:30.071Z,2.13
2018-06-02T16:23:02.279Z,2.67
2018-06-02T16:25:34.162Z,2.10
2018-06-02T16:28:06.065Z,2.30
2018-06-02T16:30:37.942Z,2.40
2018-06-02T16:33:10.598Z,2.67
2018-06-02T16:35:42.478Z,2.47
2018-06-02T16:38:15.146Z,5.23
2018-06-02T16:40:47.353Z,5.33
2018-06-02T16:43:19.251Z,2.57
2018-06-02T16:45:51.378Z,3.20
2018-06-02T16:48:23.690Z,2.80
2018-06-02T16:50:55.570Z,2.30
2018-06-02T16:53:27.526Z,2.90
2018-06-02T16:55:59.400Z,2.90
2018-06-02T16:58:31.322Z,3.17
2018-06-02T17:01:03.206Z,2.30
2018-06-02T17:03:35.103Z,8.17
2018-06-02T17:06:07.786Z,10.17
2018-06-02T17:08:39.696Z,44.50
2018-06-02T17:11:11.814Z,61.77
2018-06-02T17:13:43.710Z,30.13
2018-06-02T17:16:15.587Z,5.90
2018-06-02T17:18:47.802Z,3.20
2018-06-02T17:21:19.968Z,5.37
2018-06-02T17:23:51.876Z,3.30
2018-06-02T17:26:23.750Z,3.80
2018-06-02T17:28:55.664Z,1.77
2018-06-02T17:31:27.537Z,1.93
2018-06-02T17:33:59.450Z,1.93
2018-06-02T17:36:32.090Z,2.00
2018-06-02T17:39:04.679Z,2.10
2018-06-02T17:41:36.553Z,1.97
2018-06-02T17:44:08.460Z,1.97
2018-06-02T17:46:40.334Z,2.00
2018-06-02T17:49:12.228Z,2.17
2018-06-02T17:51:44.330Z,1.93
2018-06-02T17:54:16.219Z,3.00
2018-06-02T17:56:49.124Z,4.67
2018-06-02T17:59:21.025Z,3.57
2018-06-02T18:01:53.658Z,3.30
2018-06-02T18:04:25.568Z,4.63
2018-06-02T18:06:58.207Z,2.97
2018-06-02T18:09:30.119Z,5.17
2018-06-02T18:12:02.012Z,2.20
2018-06-02T18:14:33.962Z,3.20
2018-06-02T18:17:05.842Z,3.80
2018-06-02T18:19:37.751Z,3.07
2018-06-02T18:22:09.639Z,1.70
2018-06-02T18:24:41.968Z,2.47
2018-06-02T18:27:14.610Z,1.90
2018-06-02T18:29:46.502Z,2.00
2018-06-02T18:32:19.240Z,2.13
2018-06-02T18:34:51.126Z,2.17
2018-06-02T18:37:23.041Z,2.27
2018-06-02T18:39:54.935Z,3.13
2018-06-02T18:42:26.815Z,2.10
2018-06-02T18:44:58.734Z,2.03
2018-06-02T18:47:30.615Z,1.90
2018-06-02T18:50:02.514Z,1.97
2018-06-02T18:52:35.426Z,2.20
2018-06-02T18:55:07.326Z,2.17
2018-06-02T18:57:39.197Z,1.87
2018-06-02T19:00:11.114Z,2.00
2018-06-02T19:02:43.001Z,2.30
2018-06-02T19:05:14.902Z,2.27
2018-06-02T19:07:47.542Z,2.33
2018-06-02T19:10:19.453Z,2.33
2018-06-02T19:12:51.326Z,2.30
2018-06-02T19:15:23.240Z,2.20
2018-06-02T19:17:55.127Z,2.80
2018-06-02T19:20:27.017Z,2.50
2018-06-02T19:22:58.890Z,2.67
2018-06-02T19:25:30.818Z,2.87
2018-06-02T19:28:02.690Z,3.20
2018-06-02T19:30:34.587Z,2.83
2018-06-02T19:33:06.460Z,3.10
2018-06-02T19:35:38.358Z,2.87
2018-06-02T19:38:10.234Z,2.77
2018-06-02T19:40:42.162Z,3.00
2018-06-02T19:43:14.811Z,3.10
2018-06-02T19:45:46.713Z,3.00
2018-06-02T19:48:18.590Z,3.03
2018-06-02T19:51:19.181Z,3.07
2018-06-02T19:53:51.606Z,3.20
2018-06-02T19:56:24.073Z,3.40
2018-06-02T19:58:56.786Z,3.50
2018-06-02T20:01:29.227Z,3.50
2018-06-02T20:04:01.636Z,3.30
2018-06-02T20:06:34.058Z,3.37
2018-06-02T20:09:06.526Z,3.23
2018-06-02T20:11:39.046Z,3.20
2018-06-02T20:14:11.457Z,3.27
2018-06-02T20:16:44.151Z,3.37
2018-06-02T20:19:16.562Z,3.37
2018-06-02T20:21:49.613Z,10.00
2018-06-02T20:24:22.254Z,4.70
2018-06-02T20:26:55.278Z,7.20
2018-06-02T20:29:27.683Z,5.13
2018-06-02T20:32:00.118Z,4.03
2018-06-02T20:34:33.011Z,4.87
2018-06-02T20:37:05.456Z,4.20
2018-06-02T20:39:38.124Z,3.90
2018-06-02T20:42:10.573Z,3.80
2018-06-02T20:44:43.029Z,4.00
2018-06-02T20:47:15.452Z,4.40
2018-06-02T20:49:47.906Z,3.60
2018-06-02T20:52:20.306Z,4.10
2018-06-02T20:54:52.731Z,4.43
2018-06-02T20:57:25.494Z,3.87
2018-06-02T20:59:58.118Z,4.07
2018-06-02T21:02:30.515Z,4.10
2018-06-02T21:05:02.912Z,8.40
2018-06-02T21:07:35.322Z,8.80
2018-06-02T21:10:07.718Z,4.57
2018-06-02T21:12:40.136Z,4.80
2018-06-02T21:15:12.517Z,4.13
2018-06-02T21:17:44.929Z,4.50
2018-06-02T21:20:17.922Z,4.50
2018-06-02T21:22:50.373Z,4.70
2018-06-02T21:25:23.038Z,4.40
2018-06-02T21:27:55.467Z,4.00
2018-06-02T21:30:27.918Z,4.37
2018-06-02T21:33:00.634Z,4.40
2018-06-02T21:35:33.050Z,4.43
2018-06-02T21:38:05.479Z,4.83
2018-06-02T21:40:38.227Z,4.90
2018-06-02T21:43:10.719Z,5.00
2018-06-02T21:45:43.138Z,4.77
2018-06-02T21:48:15.783Z,4.70
2018-06-02T21:50:48.191Z,4.70
2018-06-02T21:53:20.635Z,5.10
2018-06-02T21:55:53.707Z,5.60
2018-06-02T21:58:26.123Z,4.97
2018-06-02T22:00:58.577Z,5.20
2018-06-02T22:03:31.006Z,4.80
2018-06-02T22:06:03.411Z,4.97
2018-06-02T22:08:35.859Z,5.00
2018-06-02T22:11:08.251Z,5.43
2018-06-02T22:13:40.928Z,5.70
2018-06-02T22:16:13.390Z,5.37
2018-06-02T22:18:45.822Z,5.27
2018-06-02T22:21:18.523Z,6.33
2018-06-02T22:23:50.944Z,5.63
2018-06-02T22:26:23.430Z,5.27
2018-06-02T22:28:56.166Z,5.77
2018-06-02T22:31:28.388Z,6.00
2018-06-02T22:34:00.815Z,5.77
2018-06-02T22:36:33.214Z,6.40
2018-06-02T22:39:05.947Z,6.20
2018-06-02T22:41:38.358Z,6.50
2018-06-02T22:44:10.839Z,6.43
2018-06-02T22:46:43.318Z,6.33
2018-06-02T22:49:15.739Z,6.80
2018-06-02T22:51:56.919Z,6.43
2018-06-02T22:54:29.423Z,6.50
2018-06-02T22:57:01.855Z,7.20
2018-06-02T22:59:34.364Z,7.07
2018-06-02T23:02:06.762Z,6.70
2018-06-02T23:04:39.207Z,6.40
2018-06-02T23:07:11.654Z,8.17
2018-06-02T23:09:44.297Z,7.70
2018-06-02T23:12:16.989Z,8.37
2018-06-02T23:14:49.932Z,7.50
2018-06-02T23:17:22.608Z,8.07
2018-06-02T23:19:55.010Z,8.17
2018-06-02T23:22:39.014Z,7.40
2018-06-02T23:25:11.703Z,7.37
2018-06-02T23:27:44.385Z,7.93
2018-06-02T23:30:16.797Z,8.27
2018-06-02T23:32:49.186Z,8.27
2018-06-02T23:35:21.586Z,8.43
2018-06-02T23:37:53.970Z,8.47
2018-06-02T23:40:26.366Z,8.63
2018-06-02T23:42:58.802Z,7.60
2018-06-02T23:45:31.189Z,8.37
2018-06-02T23:48:03.681Z,9.60
2018-06-02T23:50:36.322Z,8.77
2018-06-02T23:53:08.971Z,8.73
2018-06-02T23:55:41.702Z,9.63
2018-06-02T23:58:14.082Z,8.40
